Kanopolis, Kansas
Current Conditions -  °F | °C
As of 12:53 AM on Friday 28 Nov 2014 (Local Time) from KSLN Reporting Station
Clear Clear  
Wind Chill: 31°   Ceiling: Unl
Heat Index: 39°   Visibility: 10mi
Dew Point: 24°   Wind: 13mph
Humidity: 55%   Direction: 180°S
Pressure: 30.05"   Gusts: NA
Location:  38.71°N, 98.16°W
Report Text: KSLN 280653Z 18011KT 10SM CLR 04/M04 A3005 RMK AO2 SLP181 T00391044
Loading
Personal Weather Stations






























Interactive Weather Map New forecast layout! Learn more

10-Day Weather Forecast

Advertisements
Track Severe Weather on mobile